sensor_id;sensor_type;location;lat;lon;timestamp;P1;durP1;ratioP1;P2;durP2;ratioP2
21761;SDS011;11203;50.870;20.682;2023-02-21T00:01:03;4.53;;;1.80;;
21761;SDS011;11203;50.870;20.682;2023-02-21T00:03:47;3.58;;;2.22;;
21761;SDS011;11203;50.870;20.682;2023-02-21T00:06:32;3.30;;;2.30;;
21761;SDS011;11203;50.870;20.682;2023-02-21T00:09:17;2.60;;;1.80;;
21761;SDS011;11203;50.870;20.682;2023-02-21T00:12:02;3.42;;;2.30;;
21761;SDS011;11203;50.870;20.682;2023-02-21T00:14:47;2.13;;;1.40;;
21761;SDS011;11203;50.870;20.682;2023-02-21T00:17:32;4.57;;;2.00;;
21761;SDS011;11203;50.870;20.682;2023-02-21T00:20:16;3.63;;;2.20;;
21761;SDS011;11203;50.870;20.682;2023-02-21T00:23:01;2.63;;;2.05;;
21761;SDS011;11203;50.870;20.682;2023-02-21T00:25:45;3.58;;;2.03;;
21761;SDS011;11203;50.870;20.682;2023-02-21T00:28:31;3.80;;;2.65;;
21761;SDS011;11203;50.870;20.682;2023-02-21T00:31:17;4.20;;;3.15;;
21761;SDS011;11203;50.870;20.682;2023-02-21T00:34:02;7.00;;;2.67;;
21761;SDS011;11203;50.870;20.682;2023-02-21T00:36:46;3.63;;;2.00;;
21761;SDS011;11203;50.870;20.682;2023-02-21T00:39:31;3.38;;;1.80;;
21761;SDS011;11203;50.870;20.682;2023-02-21T00:42:15;3.90;;;2.25;;
21761;SDS011;11203;50.870;20.682;2023-02-21T00:44:59;4.03;;;2.75;;
21761;SDS011;11203;50.870;20.682;2023-02-21T00:47:44;3.97;;;2.60;;
21761;SDS011;11203;50.870;20.682;2023-02-21T00:50:29;3.30;;;2.03;;
21761;SDS011;11203;50.870;20.682;2023-02-21T00:53:13;4.18;;;2.20;;
21761;SDS011;11203;50.870;20.682;2023-02-21T00:55:58;6.20;;;1.58;;
21761;SDS011;11203;50.870;20.682;2023-02-21T00:58:42;3.00;;;1.70;;
21761;SDS011;11203;50.870;20.682;2023-02-21T01:01:27;3.25;;;2.25;;
21761;SDS011;11203;50.870;20.682;2023-02-21T01:04:11;3.13;;;1.75;;
21761;SDS011;11203;50.870;20.682;2023-02-21T01:06:56;3.40;;;2.78;;
21761;SDS011;11203;50.870;20.682;2023-02-21T01:09:41;3.80;;;2.50;;
21761;SDS011;11203;50.870;20.682;2023-02-21T01:12:26;4.35;;;3.40;;
21761;SDS011;11203;50.870;20.682;2023-02-21T01:15:10;5.65;;;3.92;;
21761;SDS011;11203;50.870;20.682;2023-02-21T01:17:55;5.60;;;4.22;;
21761;SDS011;11203;50.870;20.682;2023-02-21T01:20:39;4.70;;;2.67;;
21761;SDS011;11203;50.870;20.682;2023-02-21T01:23:24;5.18;;;3.90;;
21761;SDS011;11203;50.870;20.682;2023-02-21T01:26:08;5.47;;;3.28;;
21761;SDS011;11203;50.870;20.682;2023-02-21T01:28:54;3.70;;;2.63;;
21761;SDS011;11203;50.870;20.682;2023-02-21T01:31:38;6.45;;;4.97;;
21761;SDS011;11203;50.870;20.682;2023-02-21T01:34:23;5.00;;;3.63;;
21761;SDS011;11203;50.870;20.682;2023-02-21T01:37:07;5.93;;;5.00;;
21761;SDS011;11203;50.870;20.682;2023-02-21T01:39:52;6.60;;;5.95;;
21761;SDS011;11203;50.870;20.682;2023-02-21T01:42:37;6.50;;;5.13;;
21761;SDS011;11203;50.870;20.682;2023-02-21T01:48:06;4.22;;;3.10;;
21761;SDS011;11203;50.870;20.682;2023-02-21T01:50:56;4.38;;;2.53;;
21761;SDS011;11203;50.870;20.682;2023-02-21T01:53:42;6.25;;;5.63;;
21761;SDS011;11203;50.870;20.682;2023-02-21T01:56:28;6.13;;;4.07;;
21761;SDS011;11203;50.870;20.682;2023-02-21T01:59:14;3.88;;;2.35;;
21761;SDS011;11203;50.870;20.682;2023-02-21T02:02:12;5.63;;;2.88;;
21761;SDS011;11203;50.870;20.682;2023-02-21T02:05:04;3.22;;;2.45;;
21761;SDS011;11203;50.870;20.682;2023-02-21T02:07:51;4.20;;;3.22;;
21761;SDS011;11203;50.870;20.682;2023-02-21T02:10:38;2.70;;;2.13;;
21761;SDS011;11203;50.870;20.682;2023-02-21T02:13:43;4.38;;;3.13;;
21761;SDS011;11203;50.870;20.682;2023-02-21T02:23:26;3.78;;;3.00;;
21761;SDS011;11203;50.870;20.682;2023-02-21T02:42:44;5.85;;;4.72;;
21761;SDS011;11203;50.870;20.682;2023-02-21T02:45:33;4.40;;;3.25;;
21761;SDS011;11203;50.870;20.682;2023-02-21T02:48:12;4.68;;;3.55;;
21761;SDS011;11203;50.870;20.682;2023-02-21T02:50:46;4.53;;;3.05;;
21761;SDS011;11203;50.870;20.682;2023-02-21T02:53:19;4.10;;;3.33;;
21761;SDS011;11203;50.870;20.682;2023-02-21T02:58:24;6.22;;;4.10;;
21761;SDS011;11203;50.870;20.682;2023-02-21T03:11:31;5.07;;;2.90;;
21761;SDS011;11203;50.870;20.682;2023-02-21T03:16:41;3.58;;;2.88;;
21761;SDS011;11203;50.870;20.682;2023-02-21T03:19:14;4.03;;;3.63;;
21761;SDS011;11203;50.870;20.682;2023-02-21T03:21:55;3.10;;;2.40;;
21761;SDS011;11203;50.870;20.682;2023-02-21T03:24:26;4.95;;;2.55;;
21761;SDS011;11203;50.870;20.682;2023-02-21T03:26:55;4.47;;;3.22;;
21761;SDS011;11203;50.870;20.682;2023-02-21T03:29:25;3.97;;;3.58;;
21761;SDS011;11203;50.870;20.682;2023-02-21T03:31:55;4.95;;;4.55;;
21761;SDS011;11203;50.870;20.682;2023-02-21T03:34:41;4.32;;;3.38;;
21761;SDS011;11203;50.870;20.682;2023-02-21T03:37:10;3.75;;;2.53;;
21761;SDS011;11203;50.870;20.682;2023-02-21T03:40:11;6.43;;;5.30;;
21761;SDS011;11203;50.870;20.682;2023-02-21T03:42:50;4.93;;;4.40;;
21761;SDS011;11203;50.870;20.682;2023-02-21T03:45:19;3.38;;;3.00;;
21761;SDS011;11203;50.870;20.682;2023-02-21T03:47:45;6.75;;;3.15;;
21761;SDS011;11203;50.870;20.682;2023-02-21T03:50:11;4.57;;;3.15;;
21761;SDS011;11203;50.870;20.682;2023-02-21T03:52:38;3.75;;;3.08;;
21761;SDS011;11203;50.870;20.682;2023-02-21T03:55:05;5.35;;;2.72;;
21761;SDS011;11203;50.870;20.682;2023-02-21T03:57:32;4.47;;;3.80;;
21761;SDS011;11203;50.870;20.682;2023-02-21T03:59:59;5.72;;;4.22;;
21761;SDS011;11203;50.870;20.682;2023-02-21T04:02:25;6.03;;;4.40;;
21761;SDS011;11203;50.870;20.682;2023-02-21T04:04:52;7.32;;;5.65;;
21761;SDS011;11203;50.870;20.682;2023-02-21T04:07:18;4.05;;;3.05;;
21761;SDS011;11203;50.870;20.682;2023-02-21T04:09:46;3.80;;;2.65;;
21761;SDS011;11203;50.870;20.682;2023-02-21T04:12:13;5.10;;;3.50;;
21761;SDS011;11203;50.870;20.682;2023-02-21T04:14:40;3.53;;;2.95;;
21761;SDS011;11203;50.870;20.682;2023-02-21T04:17:06;4.50;;;3.42;;
21761;SDS011;11203;50.870;20.682;2023-02-21T04:19:32;3.78;;;3.38;;
21761;SDS011;11203;50.870;20.682;2023-02-21T04:21:58;4.75;;;3.20;;
21761;SDS011;11203;50.870;20.682;2023-02-21T04:24:25;6.07;;;4.40;;
21761;SDS011;11203;50.870;20.682;2023-02-21T04:26:57;4.68;;;3.38;;
21761;SDS011;11203;50.870;20.682;2023-02-21T04:29:23;4.63;;;3.25;;
21761;SDS011;11203;50.870;20.682;2023-02-21T04:31:49;4.32;;;3.90;;
21761;SDS011;11203;50.870;20.682;2023-02-21T04:34:16;3.90;;;3.40;;
21761;SDS011;11203;50.870;20.682;2023-02-21T04:36:43;5.15;;;3.20;;
21761;SDS011;11203;50.870;20.682;2023-02-21T04:39:09;4.63;;;2.35;;
21761;SDS011;11203;50.870;20.682;2023-02-21T04:41:35;4.97;;;4.00;;
21761;SDS011;11203;50.870;20.682;2023-02-21T04:44:02;5.82;;;4.93;;
21761;SDS011;11203;50.870;20.682;2023-02-21T04:46:30;3.15;;;2.25;;
21761;SDS011;11203;50.870;20.682;2023-02-21T04:48:57;4.78;;;3.28;;
21761;SDS011;11203;50.870;20.682;2023-02-21T04:51:23;4.35;;;3.22;;
21761;SDS011;11203;50.870;20.682;2023-02-21T04:53:51;4.25;;;3.45;;
21761;SDS011;11203;50.870;20.682;2023-02-21T04:56:19;5.25;;;3.92;;
21761;SDS011;11203;50.870;20.682;2023-02-21T04:58:48;6.82;;;4.25;;
21761;SDS011;11203;50.870;20.682;2023-02-21T05:01:15;7.20;;;2.78;;
21761;SDS011;11203;50.870;20.682;2023-02-21T05:03:42;5.05;;;2.90;;
21761;SDS011;11203;50.870;20.682;2023-02-21T05:06:08;4.28;;;3.40;;
21761;SDS011;11203;50.870;20.682;2023-02-21T05:08:35;3.72;;;2.65;;
21761;SDS011;11203;50.870;20.682;2023-02-21T05:11:01;4.72;;;3.30;;
21761;SDS011;11203;50.870;20.682;2023-02-21T05:13:28;4.35;;;3.42;;
21761;SDS011;11203;50.870;20.682;2023-02-21T05:15:54;3.97;;;3.30;;
21761;SDS011;11203;50.870;20.682;2023-02-21T05:18:20;4.53;;;3.40;;
21761;SDS011;11203;50.870;20.682;2023-02-21T05:20:52;5.57;;;4.55;;
21761;SDS011;11203;50.870;20.682;2023-02-21T05:23:19;4.72;;;3.58;;
21761;SDS011;11203;50.870;20.682;2023-02-21T05:26:01;3.45;;;2.50;;
21761;SDS011;11203;50.870;20.682;2023-02-21T05:28:33;4.40;;;3.85;;
21761;SDS011;11203;50.870;20.682;2023-02-21T05:31:00;4.18;;;2.88;;
21761;SDS011;11203;50.870;20.682;2023-02-21T05:33:27;5.55;;;2.88;;
21761;SDS011;11203;50.870;20.682;2023-02-21T05:35:53;3.13;;;2.35;;
21761;SDS011;11203;50.870;20.682;2023-02-21T05:38:20;4.05;;;3.65;;
21761;SDS011;11203;50.870;20.682;2023-02-21T05:40:48;3.78;;;2.40;;
21761;SDS011;11203;50.870;20.682;2023-02-21T05:43:14;3.45;;;3.15;;
21761;SDS011;11203;50.870;20.682;2023-02-21T05:45:41;5.88;;;4.80;;
21761;SDS011;11203;50.870;20.682;2023-02-21T05:48:07;5.13;;;4.30;;
21761;SDS011;11203;50.870;20.682;2023-02-21T05:50:33;4.28;;;3.08;;
21761;SDS011;11203;50.870;20.682;2023-02-21T05:53:00;4.70;;;3.83;;
21761;SDS011;11203;50.870;20.682;2023-02-21T05:55:26;5.85;;;4.03;;
21761;SDS011;11203;50.870;20.682;2023-02-21T05:57:52;5.15;;;3.35;;
21761;SDS011;11203;50.870;20.682;2023-02-21T06:00:23;4.60;;;3.55;;
21761;SDS011;11203;50.870;20.682;2023-02-21T06:02:52;6.90;;;4.43;;
21761;SDS011;11203;50.870;20.682;2023-02-21T06:05:20;5.32;;;2.90;;
21761;SDS011;11203;50.870;20.682;2023-02-21T06:07:48;5.75;;;5.05;;
21761;SDS011;11203;50.870;20.682;2023-02-21T06:10:14;5.18;;;4.10;;
21761;SDS011;11203;50.870;20.682;2023-02-21T06:12:41;3.42;;;2.65;;
21761;SDS011;11203;50.870;20.682;2023-02-21T06:15:08;4.70;;;4.00;;
21761;SDS011;11203;50.870;20.682;2023-02-21T06:17:35;4.05;;;3.22;;
21761;SDS011;11203;50.870;20.682;2023-02-21T06:20:03;4.90;;;2.95;;
21761;SDS011;11203;50.870;20.682;2023-02-21T06:22:30;4.28;;;2.55;;
21761;SDS011;11203;50.870;20.682;2023-02-21T06:24:57;3.25;;;2.80;;
21761;SDS011;11203;50.870;20.682;2023-02-21T06:27:23;4.85;;;3.20;;
21761;SDS011;11203;50.870;20.682;2023-02-21T06:29:49;3.88;;;2.28;;
21761;SDS011;11203;50.870;20.682;2023-02-21T06:32:15;7.60;;;2.75;;
21761;SDS011;11203;50.870;20.682;2023-02-21T06:34:42;3.20;;;2.30;;
21761;SDS011;11203;50.870;20.682;2023-02-21T06:37:09;4.38;;;3.05;;
21761;SDS011;11203;50.870;20.682;2023-02-21T06:39:36;5.43;;;2.88;;
21761;SDS011;11203;50.870;20.682;2023-02-21T06:42:03;3.70;;;2.72;;
21761;SDS011;11203;50.870;20.682;2023-02-21T06:44:30;3.10;;;2.67;;
21761;SDS011;11203;50.870;20.682;2023-02-21T06:46:57;3.70;;;3.15;;
21761;SDS011;11203;50.870;20.682;2023-02-21T06:49:22;6.10;;;5.57;;
21761;SDS011;11203;50.870;20.682;2023-02-21T06:51:49;3.83;;;2.60;;
21761;SDS011;11203;50.870;20.682;2023-02-21T06:54:15;6.97;;;5.05;;
21761;SDS011;11203;50.870;20.682;2023-02-21T06:56:41;6.88;;;3.88;;
21761;SDS011;11203;50.870;20.682;2023-02-21T06:59:08;5.25;;;3.35;;
21761;SDS011;11203;50.870;20.682;2023-02-21T07:01:35;3.75;;;2.20;;
21761;SDS011;11203;50.870;20.682;2023-02-21T07:04:01;3.22;;;2.67;;
21761;SDS011;11203;50.870;20.682;2023-02-21T07:06:27;3.65;;;2.45;;
21761;SDS011;11203;50.870;20.682;2023-02-21T07:08:57;2.20;;;1.80;;
21761;SDS011;11203;50.870;20.682;2023-02-21T07:11:24;3.78;;;2.60;;
21761;SDS011;11203;50.870;20.682;2023-02-21T07:13:53;4.30;;;2.80;;
21761;SDS011;11203;50.870;20.682;2023-02-21T07:16:21;5.78;;;2.38;;
21761;SDS011;11203;50.870;20.682;2023-02-21T07:18:47;3.70;;;2.35;;
21761;SDS011;11203;50.870;20.682;2023-02-21T07:21:13;3.40;;;2.38;;
21761;SDS011;11203;50.870;20.682;2023-02-21T07:23:43;4.43;;;2.55;;
21761;SDS011;11203;50.870;20.682;2023-02-21T07:26:11;4.35;;;2.90;;
21761;SDS011;11203;50.870;20.682;2023-02-21T07:28:37;5.05;;;2.78;;
21761;SDS011;11203;50.870;20.682;2023-02-21T07:31:04;3.15;;;2.03;;
21761;SDS011;11203;50.870;20.682;2023-02-21T07:33:30;3.67;;;2.88;;
21761;SDS011;11203;50.870;20.682;2023-02-21T07:35:56;3.72;;;2.53;;
21761;SDS011;11203;50.870;20.682;2023-02-21T07:38:23;5.53;;;3.40;;
21761;SDS011;11203;50.870;20.682;2023-02-21T07:40:56;5.10;;;3.65;;
21761;SDS011;11203;50.870;20.682;2023-02-21T07:43:25;6.32;;;3.80;;
21761;SDS011;11203;50.870;20.682;2023-02-21T07:45:53;4.43;;;2.78;;
21761;SDS011;11203;50.870;20.682;2023-02-21T07:48:20;5.00;;;3.53;;
21761;SDS011;11203;50.870;20.682;2023-02-21T07:50:47;3.95;;;3.10;;
21761;SDS011;11203;50.870;20.682;2023-02-21T07:53:13;5.80;;;3.47;;
21761;SDS011;11203;50.870;20.682;2023-02-21T07:55:40;5.22;;;3.10;;
21761;SDS011;11203;50.870;20.682;2023-02-21T07:58:06;4.28;;;3.30;;
21761;SDS011;11203;50.870;20.682;2023-02-21T08:00:33;4.50;;;3.10;;
21761;SDS011;11203;50.870;20.682;2023-02-21T08:02:59;6.22;;;3.58;;
21761;SDS011;11203;50.870;20.682;2023-02-21T08:05:25;12.25;;;5.13;;
21761;SDS011;11203;50.870;20.682;2023-02-21T08:07:52;7.90;;;4.20;;
21761;SDS011;11203;50.870;20.682;2023-02-21T08:10:19;6.13;;;3.10;;
21761;SDS011;11203;50.870;20.682;2023-02-21T08:12:51;5.20;;;2.92;;
21761;SDS011;11203;50.870;20.682;2023-02-21T08:15:20;3.13;;;2.55;;
21761;SDS011;11203;50.870;20.682;2023-02-21T08:17:47;3.22;;;2.55;;
21761;SDS011;11203;50.870;20.682;2023-02-21T08:20:14;5.72;;;2.30;;
21761;SDS011;11203;50.870;20.682;2023-02-21T08:22:41;2.78;;;2.17;;
21761;SDS011;11203;50.870;20.682;2023-02-21T08:25:09;2.97;;;2.40;;
21761;SDS011;11203;50.870;20.682;2023-02-21T08:27:42;2.28;;;2.03;;
21761;SDS011;11203;50.870;20.682;2023-02-21T08:30:12;2.08;;;1.70;;
21761;SDS011;11203;50.870;20.682;2023-02-21T08:32:40;3.15;;;2.65;;
21761;SDS011;11203;50.870;20.682;2023-02-21T08:35:06;2.30;;;2.10;;
21761;SDS011;11203;50.870;20.682;2023-02-21T08:37:32;2.42;;;2.17;;
21761;SDS011;11203;50.870;20.682;2023-02-21T08:40:01;2.05;;;1.58;;
21761;SDS011;11203;50.870;20.682;2023-02-21T08:42:29;2.40;;;2.20;;
21761;SDS011;11203;50.870;20.682;2023-02-21T08:44:55;3.28;;;1.48;;
21761;SDS011;11203;50.870;20.682;2023-02-21T08:47:21;2.55;;;1.73;;
21761;SDS011;11203;50.870;20.682;2023-02-21T08:49:48;3.30;;;1.90;;
21761;SDS011;11203;50.870;20.682;2023-02-21T08:52:15;3.60;;;1.80;;
21761;SDS011;11203;50.870;20.682;2023-02-21T08:54:43;2.80;;;1.58;;
21761;SDS011;11203;50.870;20.682;2023-02-21T08:57:10;2.20;;;1.30;;
21761;SDS011;11203;50.870;20.682;2023-02-21T08:59:40;3.63;;;1.63;;
21761;SDS011;11203;50.870;20.682;2023-02-21T09:02:17;1.58;;;1.42;;
21761;SDS011;11203;50.870;20.682;2023-02-21T09:04:47;3.97;;;1.67;;
21761;SDS011;11203;50.870;20.682;2023-02-21T09:07:13;1.92;;;1.17;;
21761;SDS011;11203;50.870;20.682;2023-02-21T09:09:41;1.88;;;1.60;;
21761;SDS011;11203;50.870;20.682;2023-02-21T09:12:07;3.05;;;1.67;;
21761;SDS011;11203;50.870;20.682;2023-02-21T09:14:34;3.90;;;1.67;;
21761;SDS011;11203;50.870;20.682;2023-02-21T09:17:02;2.58;;;1.50;;
21761;SDS011;11203;50.870;20.682;2023-02-21T09:19:30;2.97;;;1.70;;
21761;SDS011;11203;50.870;20.682;2023-02-21T09:21:56;3.00;;;1.63;;
21761;SDS011;11203;50.870;20.682;2023-02-21T09:24:23;4.63;;;1.80;;
21761;SDS011;11203;50.870;20.682;2023-02-21T09:26:52;6.70;;;2.03;;
21761;SDS011;11203;50.870;20.682;2023-02-21T09:29:23;3.08;;;2.78;;
21761;SDS011;11203;50.870;20.682;2023-02-21T09:31:50;3.70;;;1.70;;
21761;SDS011;11203;50.870;20.682;2023-02-21T09:34:18;6.18;;;2.33;;
21761;SDS011;11203;50.870;20.682;2023-02-21T09:36:44;3.47;;;2.17;;
21761;SDS011;11203;50.870;20.682;2023-02-21T09:39:12;4.20;;;1.65;;
21761;SDS011;11203;50.870;20.682;2023-02-21T09:41:38;2.75;;;2.08;;
21761;SDS011;11203;50.870;20.682;2023-02-21T09:44:15;4.95;;;1.95;;
21761;SDS011;11203;50.870;20.682;2023-02-21T09:46:55;3.50;;;1.80;;
21761;SDS011;11203;50.870;20.682;2023-02-21T09:49:27;5.00;;;2.03;;
21761;SDS011;11203;50.870;20.682;2023-02-21T09:51:57;5.78;;;1.42;;
21761;SDS011;11203;50.870;20.682;2023-02-21T09:54:39;4.65;;;2.35;;
21761;SDS011;11203;50.870;20.682;2023-02-21T09:57:10;5.75;;;1.80;;
21761;SDS011;11203;50.870;20.682;2023-02-21T09:59:39;3.30;;;1.60;;
21761;SDS011;11203;50.870;20.682;2023-02-21T10:07:59;4.15;;;1.70;;
21761;SDS011;11203;50.870;20.682;2023-02-21T10:11:04;9.23;;;2.92;;
21761;SDS011;11203;50.870;20.682;2023-02-21T10:13:56;2.10;;;1.48;;
21761;SDS011;11203;50.870;20.682;2023-02-21T10:16:46;4.75;;;1.80;;
21761;SDS011;11203;50.870;20.682;2023-02-21T10:19:37;3.92;;;1.30;;
21761;SDS011;11203;50.870;20.682;2023-02-21T10:22:12;1.70;;;1.50;;
21761;SDS011;11203;50.870;20.682;2023-02-21T10:24:48;4.07;;;1.83;;
21761;SDS011;11203;50.870;20.682;2023-02-21T10:27:19;3.88;;;2.10;;
21761;SDS011;11203;50.870;20.682;2023-02-21T10:32:34;3.63;;;1.92;;
21761;SDS011;11203;50.870;20.682;2023-02-21T10:35:01;7.95;;;2.50;;
21761;SDS011;11203;50.870;20.682;2023-02-21T10:37:45;5.07;;;2.45;;
21761;SDS011;11203;50.870;20.682;2023-02-21T10:43:46;5.93;;;2.17;;
21761;SDS011;11203;50.870;20.682;2023-02-21T10:55:34;5.03;;;1.90;;
21761;SDS011;11203;50.870;20.682;2023-02-21T10:57:48;5.80;;;1.73;;
21761;SDS011;11203;50.870;20.682;2023-02-21T11:00:22;3.35;;;1.63;;
21761;SDS011;11203;50.870;20.682;2023-02-21T11:05:50;6.32;;;1.70;;
21761;SDS011;11203;50.870;20.682;2023-02-21T11:08:39;4.22;;;1.70;;
21761;SDS011;11203;50.870;20.682;2023-02-21T11:11:08;5.55;;;1.30;;
21761;SDS011;11203;50.870;20.682;2023-02-21T11:13:35;5.32;;;1.67;;
21761;SDS011;11203;50.870;20.682;2023-02-21T11:16:15;4.63;;;1.77;;
21761;SDS011;11203;50.870;20.682;2023-02-21T11:18:44;3.08;;;1.45;;
21761;SDS011;11203;50.870;20.682;2023-02-21T11:21:14;3.03;;;1.50;;
21761;SDS011;11203;50.870;20.682;2023-02-21T11:26:35;2.55;;;1.52;;
21761;SDS011;11203;50.870;20.682;2023-02-21T11:29:30;3.22;;;1.52;;
21761;SDS011;11203;50.870;20.682;2023-02-21T11:31:56;4.57;;;2.40;;
21761;SDS011;11203;50.870;20.682;2023-02-21T11:34:25;4.05;;;1.40;;
21761;SDS011;11203;50.870;20.682;2023-02-21T11:36:54;4.65;;;2.05;;
21761;SDS011;11203;50.870;20.682;2023-02-21T11:39:31;6.35;;;2.00;;
21761;SDS011;11203;50.870;20.682;2023-02-21T11:41:59;7.15;;;2.40;;
21761;SDS011;11203;50.870;20.682;2023-02-21T11:44:36;10.38;;;3.35;;
21761;SDS011;11203;50.870;20.682;2023-02-21T11:50:01;2.38;;;1.40;;
21761;SDS011;11203;50.870;20.682;2023-02-21T11:53:03;4.13;;;1.70;;
21761;SDS011;11203;50.870;20.682;2023-02-21T11:59:07;4.30;;;1.30;;
21761;SDS011;11203;50.870;20.682;2023-02-21T12:10:38;8.30;;;2.58;;
21761;SDS011;11203;50.870;20.682;2023-02-21T12:24:58;2.50;;;1.45;;
21761;SDS011;11203;50.870;20.682;2023-02-21T12:28:16;4.20;;;1.63;;
21761;SDS011;11203;50.870;20.682;2023-02-21T12:31:02;2.95;;;1.67;;
21761;SDS011;11203;50.870;20.682;2023-02-21T12:34:32;2.97;;;1.70;;
21761;SDS011;11203;50.870;20.682;2023-02-21T12:43:33;7.15;;;1.90;;
21761;SDS011;11203;50.870;20.682;2023-02-21T12:49:17;6.18;;;1.85;;
21761;SDS011;11203;50.870;20.682;2023-02-21T12:52:26;5.88;;;2.00;;
21761;SDS011;11203;50.870;20.682;2023-02-21T12:55:24;4.32;;;1.90;;
21761;SDS011;11203;50.870;20.682;2023-02-21T13:06:04;5.45;;;2.00;;
21761;SDS011;11203;50.870;20.682;2023-02-21T13:14:08;8.50;;;2.90;;
21761;SDS011;11203;50.870;20.682;2023-02-21T13:16:41;12.02;;;2.55;;
21761;SDS011;11203;50.870;20.682;2023-02-21T13:19:09;4.68;;;1.90;;
21761;SDS011;11203;50.870;20.682;2023-02-21T13:32:39;5.15;;;2.47;;
21761;SDS011;11203;50.870;20.682;2023-02-21T13:35:24;7.63;;;2.78;;
21761;SDS011;11203;50.870;20.682;2023-02-21T13:38:01;5.18;;;2.50;;
21761;SDS011;11203;50.870;20.682;2023-02-21T13:40:44;5.45;;;1.80;;
21761;SDS011;11203;50.870;20.682;2023-02-21T13:43:29;6.38;;;2.15;;
21761;SDS011;11203;50.870;20.682;2023-02-21T13:52:32;3.30;;;1.70;;
21761;SDS011;11203;50.870;20.682;2023-02-21T14:02:58;3.45;;;1.70;;
21761;SDS011;11203;50.870;20.682;2023-02-21T14:08:18;5.68;;;2.05;;
21761;SDS011;11203;50.870;20.682;2023-02-21T14:16:18;7.30;;;2.58;;
21761;SDS011;11203;50.870;20.682;2023-02-21T14:18:51;7.30;;;1.50;;
21761;SDS011;11203;50.870;20.682;2023-02-21T14:24:25;7.53;;;2.70;;
21761;SDS011;11203;50.870;20.682;2023-02-21T14:26:54;7.60;;;1.88;;
21761;SDS011;11203;50.870;20.682;2023-02-21T14:32:44;11.25;;;2.17;;
21761;SDS011;11203;50.870;20.682;2023-02-21T14:38:22;7.15;;;2.78;;
21761;SDS011;11203;50.870;20.682;2023-02-21T14:40:57;10.52;;;2.72;;
21761;SDS011;11203;50.870;20.682;2023-02-21T14:49:58;6.80;;;2.13;;
21761;SDS011;11203;50.870;20.682;2023-02-21T15:04:42;6.00;;;2.00;;
21761;SDS011;11203;50.870;20.682;2023-02-21T15:07:33;5.25;;;2.13;;
21761;SDS011;11203;50.870;20.682;2023-02-21T15:10:12;6.97;;;2.63;;
21761;SDS011;11203;50.870;20.682;2023-02-21T15:12:57;11.13;;;2.20;;
21761;SDS011;11203;50.870;20.682;2023-02-21T15:15:28;6.20;;;2.17;;
21761;SDS011;11203;50.870;20.682;2023-02-21T15:18:07;6.90;;;2.28;;
21761;SDS011;11203;50.870;20.682;2023-02-21T15:20:59;6.97;;;2.55;;
21761;SDS011;11203;50.870;20.682;2023-02-21T15:23:27;6.13;;;1.98;;
21761;SDS011;11203;50.870;20.682;2023-02-21T15:25:55;5.90;;;1.77;;
21761;SDS011;11203;50.870;20.682;2023-02-21T15:28:25;3.28;;;1.80;;
21761;SDS011;11203;50.870;20.682;2023-02-21T15:31:07;11.30;;;2.20;;
21761;SDS011;11203;50.870;20.682;2023-02-21T15:33:39;4.57;;;1.85;;
21761;SDS011;11203;50.870;20.682;2023-02-21T15:36:17;9.82;;;2.30;;
21761;SDS011;11203;50.870;20.682;2023-02-21T15:41:28;4.88;;;2.00;;
21761;SDS011;11203;50.870;20.682;2023-02-21T15:49:42;8.90;;;2.42;;
21761;SDS011;11203;50.870;20.682;2023-02-21T15:52:51;12.95;;;2.72;;
21761;SDS011;11203;50.870;20.682;2023-02-21T16:00:32;13.18;;;3.20;;
21761;SDS011;11203;50.870;20.682;2023-02-21T16:11:24;6.30;;;1.77;;
21761;SDS011;11203;50.870;20.682;2023-02-21T16:14:17;6.47;;;2.83;;
21761;SDS011;11203;50.870;20.682;2023-02-21T16:19:43;8.73;;;2.50;;
21761;SDS011;11203;50.870;20.682;2023-02-21T16:22:21;13.63;;;3.38;;
21761;SDS011;11203;50.870;20.682;2023-02-21T16:25:04;4.68;;;2.13;;
21761;SDS011;11203;50.870;20.682;2023-02-21T16:27:33;7.80;;;2.45;;
21761;SDS011;11203;50.870;20.682;2023-02-21T16:29:59;11.63;;;2.78;;
21761;SDS011;11203;50.870;20.682;2023-02-21T16:32:25;12.88;;;3.30;;
21761;SDS011;11203;50.870;20.682;2023-02-21T16:34:51;7.68;;;2.28;;
21761;SDS011;11203;50.870;20.682;2023-02-21T16:37:19;6.35;;;2.92;;
21761;SDS011;11203;50.870;20.682;2023-02-21T16:39:47;9.15;;;2.30;;
21761;SDS011;11203;50.870;20.682;2023-02-21T16:42:13;5.00;;;2.65;;
21761;SDS011;11203;50.870;20.682;2023-02-21T16:44:44;9.95;;;2.92;;
21761;SDS011;11203;50.870;20.682;2023-02-21T16:47:14;10.75;;;3.53;;
21761;SDS011;11203;50.870;20.682;2023-02-21T16:49:42;7.55;;;2.63;;
21761;SDS011;11203;50.870;20.682;2023-02-21T16:52:15;8.35;;;2.38;;
21761;SDS011;11203;50.870;20.682;2023-02-21T16:54:42;12.82;;;3.03;;
21761;SDS011;11203;50.870;20.682;2023-02-21T16:57:08;4.82;;;2.42;;
21761;SDS011;11203;50.870;20.682;2023-02-21T16:59:35;6.97;;;2.22;;
21761;SDS011;11203;50.870;20.682;2023-02-21T17:02:02;11.10;;;3.38;;
21761;SDS011;11203;50.870;20.682;2023-02-21T17:04:30;8.55;;;2.88;;
21761;SDS011;11203;50.870;20.682;2023-02-21T17:07:00;4.05;;;2.67;;
21761;SDS011;11203;50.870;20.682;2023-02-21T17:09:29;11.48;;;4.53;;
21761;SDS011;11203;50.870;20.682;2023-02-21T17:12:03;13.70;;;3.13;;
21761;SDS011;11203;50.870;20.682;2023-02-21T17:14:31;7.25;;;3.10;;
21761;SDS011;11203;50.870;20.682;2023-02-21T17:16:57;8.95;;;2.75;;
21761;SDS011;11203;50.870;20.682;2023-02-21T17:19:24;10.18;;;3.13;;
21761;SDS011;11203;50.870;20.682;2023-02-21T17:21:50;10.80;;;2.83;;
21761;SDS011;11203;50.870;20.682;2023-02-21T17:24:17;9.18;;;2.88;;
21761;SDS011;11203;50.870;20.682;2023-02-21T17:26:43;8.55;;;3.35;;
21761;SDS011;11203;50.870;20.682;2023-02-21T17:29:10;7.78;;;2.20;;
21761;SDS011;11203;50.870;20.682;2023-02-21T17:31:36;12.70;;;3.33;;
21761;SDS011;11203;50.870;20.682;2023-02-21T17:34:02;10.63;;;3.25;;
21761;SDS011;11203;50.870;20.682;2023-02-21T17:36:29;7.32;;;2.67;;
21761;SDS011;11203;50.870;20.682;2023-02-21T17:38:55;10.95;;;3.17;;
21761;SDS011;11203;50.870;20.682;2023-02-21T17:41:22;10.55;;;3.00;;
21761;SDS011;11203;50.870;20.682;2023-02-21T17:43:48;7.75;;;2.70;;
21761;SDS011;11203;50.870;20.682;2023-02-21T17:46:15;6.28;;;1.83;;
21761;SDS011;11203;50.870;20.682;2023-02-21T17:48:43;7.05;;;2.03;;
21761;SDS011;11203;50.870;20.682;2023-02-21T17:51:15;10.15;;;2.55;;
21761;SDS011;11203;50.870;20.682;2023-02-21T17:53:48;12.63;;;3.10;;
21761;SDS011;11203;50.870;20.682;2023-02-21T17:56:19;7.57;;;2.78;;
21761;SDS011;11203;50.870;20.682;2023-02-21T17:58:47;7.15;;;2.20;;
21761;SDS011;11203;50.870;20.682;2023-02-21T18:01:13;13.05;;;3.30;;
21761;SDS011;11203;50.870;20.682;2023-02-21T18:03:43;7.28;;;2.85;;
21761;SDS011;11203;50.870;20.682;2023-02-21T18:06:11;9.52;;;2.88;;
21761;SDS011;11203;50.870;20.682;2023-02-21T18:08:38;5.07;;;1.92;;
21761;SDS011;11203;50.870;20.682;2023-02-21T18:11:08;11.48;;;2.97;;
21761;SDS011;11203;50.870;20.682;2023-02-21T18:13:36;3.83;;;1.92;;
21761;SDS011;11203;50.870;20.682;2023-02-21T18:16:02;6.18;;;2.40;;
21761;SDS011;11203;50.870;20.682;2023-02-21T18:18:30;16.25;;;4.05;;
21761;SDS011;11203;50.870;20.682;2023-02-21T18:20:57;10.35;;;2.88;;
21761;SDS011;11203;50.870;20.682;2023-02-21T18:23:24;9.50;;;3.70;;
21761;SDS011;11203;50.870;20.682;2023-02-21T18:25:51;15.93;;;6.28;;
21761;SDS011;11203;50.870;20.682;2023-02-21T18:28:17;12.65;;;4.82;;
21761;SDS011;11203;50.870;20.682;2023-02-21T18:30:43;6.50;;;4.05;;
21761;SDS011;11203;50.870;20.682;2023-02-21T18:33:10;14.57;;;5.32;;